Time;durP1;ratioP1;P1;durP2;ratioP2;P2;SDS_P1;SDS_P2;PMS_P1;PMS_P2;Temp;Humidity;BMP_temperature;BMP_pressure;BME280_temperature;BME280_humidity;BME280_pressure;Samples;Min_cycle;Max_cycle;Signal;HPM_P1;HPM_P2
2022/02/21 00:02:20;;;;;;;1.63;1.20;;;23.50;37.90;;;;;;6128598;28;81637;-68
2022/02/21 00:05:21;;;;;;;3.78;1.38;;;23.50;38.00;;;;;;6127164;28;80323;-67
2022/02/21 00:08:22;;;;;;;0.85;0.85;;;23.40;37.90;;;;;;6128057;28;80200;-67
2022/02/21 00:11:22;;;;;;;1.58;1.23;;;23.50;38.70;;;;;;6113327;28;80274;-67
2022/02/21 00:14:23;;;;;;;1.55;1.10;;;23.40;37.90;;;;;;6106657;28;81432;-68
2022/02/21 00:17:23;;;;;;;1.40;1.20;;;23.40;38.00;;;;;;6112027;28;80363;-66
2022/02/21 00:20:24;;;;;;;1.63;1.10;;;23.40;38.00;;;;;;6112625;28;80810;-66
2022/02/21 00:23:24;;;;;;;1.25;1.10;;;23.40;38.00;;;;;;6114083;28;80290;-66
2022/02/21 00:26:25;;;;;;;1.20;1.10;;;23.40;38.00;;;;;;6100427;28;80519;-66
2022/02/21 00:29:25;;;;;;;2.17;1.20;;;23.40;38.00;;;;;;6106832;28;80854;-66
2022/02/21 00:32:26;;;;;;;2.72;1.50;;;23.40;38.00;;;;;;6126317;28;80753;-66
2022/02/21 00:35:26;;;;;;;1.17;1.08;;;23.40;38.00;;;;;;6128448;28;80564;-65
2022/02/21 00:38:27;;;;;;;1.17;0.80;;;23.40;37.80;;;;;;6123269;28;81011;-66
2022/02/21 00:41:27;;;;;;;1.73;1.17;;;23.30;37.80;;;;;;6111632;28;80481;-67
2022/02/21 00:44:28;;;;;;;1.30;1.20;;;23.30;37.90;;;;;;6121571;28;80607;-67
2022/02/21 00:47:29;;;;;;;0.90;0.90;;;23.30;37.80;;;;;;6110510;28;80394;-67
2022/02/21 00:50:29;;;;;;;1.20;1.02;;;23.30;37.80;;;;;;6112295;28;81459;-66
2022/02/21 00:53:30;;;;;;;2.85;1.30;;;23.30;37.80;;;;;;6113781;28;81515;-66
2022/02/21 00:56:30;;;;;;;2.05;1.25;;;23.30;37.90;;;;;;6113035;28;81106;-66
2022/02/21 00:59:30;;;;;;;1.50;1.08;;;23.30;37.90;;;;;;6109061;28;81074;-66
2022/02/21 01:02:34;;;;;;;1.35;1.25;;;23.30;37.80;;;;;;6100286;28;80820;-66
2022/02/21 01:05:35;;;;;;;6.85;1.35;;;23.20;37.90;;;;;;6108763;28;81587;-67
2022/02/21 01:08:35;;;;;;;2.22;1.40;;;23.30;37.80;;;;;;6111008;28;80742;-67
2022/02/21 01:11:36;;;;;;;1.00;0.90;;;23.30;37.90;;;;;;6096122;28;81339;-67
2022/02/21 01:14:37;;;;;;;2.13;1.35;;;23.30;37.90;;;;;;6123123;28;81177;-67
2022/02/21 01:17:37;;;;;;;1.90;1.00;;;23.30;37.90;;;;;;6129481;28;80560;-66
2022/02/21 01:20:38;;;;;;;8.95;1.13;;;23.30;38.00;;;;;;6124157;28;80553;-65
2022/02/21 01:23:40;;;;;;;1.27;0.90;;;23.20;37.80;;;;;;6112172;28;80558;-66
2022/02/21 01:26:40;;;;;;;1.63;1.10;;;23.20;37.80;;;;;;6122895;28;80870;-65
2022/02/21 01:29:41;;;;;;;1.20;1.10;;;23.20;37.80;;;;;;6128629;28;81879;-66
2022/02/21 01:32:41;;;;;;;1.00;0.90;;;23.20;37.80;;;;;;6109222;28;80453;-67
2022/02/21 01:35:42;;;;;;;1.42;1.00;;;23.20;37.90;;;;;;6099977;28;80575;-67
2022/02/21 01:38:42;;;;;;;1.98;1.13;;;23.20;37.90;;;;;;6112188;28;80524;-66
2022/02/21 01:41:43;;;;;;;2.05;1.30;;;23.20;37.90;;;;;;6120099;28;81680;-66
2022/02/21 01:44:43;;;;;;;1.85;1.30;;;23.20;38.00;;;;;;6110940;28;80956;-66
2022/02/21 01:47:44;;;;;;;1.73;1.10;;;23.20;38.00;;;;;;6111494;28;80257;-65
2022/02/21 01:50:44;;;;;;;1.17;1.08;;;23.20;38.00;;;;;;6127450;28;80763;-65
2022/02/21 01:53:45;;;;;;;1.20;1.10;;;23.20;37.90;;;;;;6110289;28;84125;-65
2022/02/21 01:56:46;;;;;;;1.70;1.23;;;23.20;38.00;;;;;;6117744;28;83358;-67
2022/02/21 01:59:46;;;;;;;0.95;0.88;;;23.20;38.00;;;;;;6098134;28;80724;-65
2022/02/21 02:02:47;;;;;;;1.25;1.02;;;23.20;37.90;;;;;;6098129;28;80691;-66
2022/02/21 02:05:47;;;;;;;1.05;0.95;;;23.20;37.90;;;;;;6110950;28;81538;-66
2022/02/21 02:08:48;;;;;;;2.30;1.00;;;23.20;37.90;;;;;;6111942;28;80647;-67
2022/02/21 02:11:48;;;;;;;0.93;0.88;;;23.10;37.80;;;;;;6103581;28;80564;-66
2022/02/21 02:14:49;;;;;;;1.63;1.27;;;23.10;37.90;;;;;;6105255;28;80409;-66
2022/02/21 02:17:49;;;;;;;1.17;0.90;;;23.10;38.00;;;;;;6109125;28;80690;-66
2022/02/21 02:20:50;;;;;;;0.80;0.80;;;23.10;37.90;;;;;;6110737;28;80476;-66
2022/02/21 02:23:50;;;;;;;1.25;1.15;;;23.10;37.90;;;;;;6123978;28;80239;-65
2022/02/21 02:26:51;;;;;;;2.10;1.38;;;23.10;38.00;;;;;;6128878;28;80734;-65
2022/02/21 02:29:51;;;;;;;1.20;0.95;;;23.10;37.90;;;;;;6123104;28;80254;-67
2022/02/21 02:32:54;;;;;;;1.58;0.98;;;23.10;37.90;;;;;;6116861;28;80518;-66
2022/02/21 02:35:55;;;;;;;1.42;1.00;;;23.10;38.00;;;;;;6115003;28;80425;-66
2022/02/21 02:38:55;;;;;;;1.00;0.93;;;23.10;38.00;;;;;;6104786;28;80408;-65
2022/02/21 02:41:56;;;;;;;2.17;0.90;;;23.10;38.10;;;;;;6119590;28;80434;-66
2022/02/21 02:44:56;;;;;;;0.73;0.73;;;23.20;37.90;;;;;;6115376;28;81532;-66
2022/02/21 02:47:57;;;;;;;1.08;0.98;;;23.10;37.70;;;;;;6121471;28;82115;-66
2022/02/21 02:50:57;;;;;;;1.13;0.90;;;23.10;37.90;;;;;;6116453;28;80121;-66
2022/02/21 02:53:58;;;;;;;1.08;0.80;;;23.10;38.00;;;;;;6119071;28;80450;-66
2022/02/21 02:56:58;;;;;;;1.10;1.00;;;23.10;38.00;;;;;;6106770;28;81961;-65
2022/02/21 02:59:59;;;;;;;1.13;1.02;;;23.10;38.00;;;;;;6122133;28;80361;-66
2022/02/21 03:02:59;;;;;;;1.75;0.95;;;23.10;38.00;;;;;;6116151;28;80380;-66
2022/02/21 03:06:00;;;;;;;1.30;1.00;;;23.10;37.90;;;;;;6126261;28;80377;-65
2022/02/21 03:09:01;;;;;;;1.10;1.00;;;23.20;38.20;;;;;;6117158;28;80938;-65
2022/02/21 03:12:01;;;;;;;1.65;1.10;;;23.10;38.10;;;;;;6097351;28;81458;-66
2022/02/21 03:15:02;;;;;;;2.17;1.17;;;23.20;38.10;;;;;;6097420;28;80285;-67
2022/02/21 03:18:02;;;;;;;0.82;0.82;;;23.20;38.10;;;;;;6108110;28;81387;-67
2022/02/21 03:21:03;;;;;;;1.88;1.10;;;23.20;38.70;;;;;;6103291;28;80252;-66
2022/02/21 03:24:03;;;;;;;1.50;1.23;;;23.20;38.30;;;;;;6101566;28;83787;-66
2022/02/21 03:27:04;;;;;;;1.65;1.10;;;23.10;38.10;;;;;;6101713;28;81565;-65
2022/02/21 03:30:04;;;;;;;1.23;0.80;;;23.10;38.20;;;;;;6101437;28;80442;-66
2022/02/21 03:33:05;;;;;;;1.10;1.00;;;23.20;38.20;;;;;;6116205;28;80605;-66
2022/02/21 03:36:05;;;;;;;1.15;1.05;;;23.10;38.20;;;;;;6101293;28;81115;-65
2022/02/21 03:39:06;;;;;;;1.88;1.00;;;23.10;38.50;;;;;;6120171;28;80492;-66
2022/02/21 03:42:06;;;;;;;1.85;1.17;;;23.10;38.20;;;;;;6126515;28;82530;-66
2022/02/21 03:45:07;;;;;;;0.95;0.88;;;23.10;38.30;;;;;;6114837;28;80468;-65
2022/02/21 03:48:07;;;;;;;1.60;1.00;;;23.10;38.20;;;;;;6119489;28;81311;-64
2022/02/21 03:51:08;;;;;;;0.80;0.80;;;23.10;38.50;;;;;;6105002;28;80555;-65
2022/02/21 03:54:08;;;;;;;1.00;0.90;;;23.10;40.20;;;;;;6113937;28;81241;-63
2022/02/21 03:57:09;;;;;;;1.00;0.90;;;23.20;40.80;;;;;;6128231;28;81140;-65
2022/02/21 04:00:12;;;;;;;1.17;1.08;;;23.10;41.00;;;;;;6127075;28;83849;-65
2022/02/21 04:03:14;;;;;;;1.60;1.10;;;23.10;41.60;;;;;;6101195;28;81631;-65
2022/02/21 04:06:14;;;;;;;2.03;1.35;;;23.10;41.40;;;;;;6099549;28;81136;-64
2022/02/21 04:09:15;;;;;;;1.42;0.80;;;23.10;41.80;;;;;;6115800;28;81378;-65
2022/02/21 04:12:15;;;;;;;1.42;1.00;;;23.10;41.80;;;;;;6119659;28;81638;-65
2022/02/21 04:15:16;;;;;;;0.70;0.70;;;23.10;41.80;;;;;;6123203;28;80915;-64
2022/02/21 04:18:16;;;;;;;1.13;1.00;;;23.10;41.50;;;;;;6115362;28;80896;-64
2022/02/21 04:21:17;;;;;;;2.38;1.08;;;23.20;41.60;;;;;;6111382;28;80422;-64
2022/02/21 04:24:17;;;;;;;1.17;0.90;;;23.10;41.40;;;;;;6127957;28;81573;-63
2022/02/21 04:27:18;;;;;;;2.05;1.30;;;23.20;41.30;;;;;;6113108;28;81452;-64
2022/02/21 04:30:18;;;;;;;0.90;0.90;;;23.20;40.80;;;;;;6112051;28;81480;-64
2022/02/21 04:33:19;;;;;;;0.80;0.80;;;23.20;40.60;;;;;;6133413;28;81955;-64
2022/02/21 04:36:19;;;;;;;1.63;1.08;;;23.20;40.50;;;;;;6113749;28;81600;-64
2022/02/21 04:39:20;;;;;;;1.08;1.00;;;23.20;39.80;;;;;;6118488;28;80462;-64
2022/02/21 04:42:20;;;;;;;1.00;1.00;;;23.30;39.30;;;;;;6120950;28;80378;-64
2022/02/21 04:45:21;;;;;;;1.25;1.00;;;23.30;39.30;;;;;;6123930;28;80573;-65
2022/02/21 04:48:21;;;;;;;1.10;1.05;;;23.30;39.30;;;;;;6114185;28;80448;-65
2022/02/21 04:51:22;;;;;;;2.42;1.10;;;23.40;39.20;;;;;;6115187;28;80695;-62
2022/02/21 04:54:22;;;;;;;1.20;1.10;;;23.40;39.40;;;;;;6128435;28;80774;-64
2022/02/21 04:57:23;;;;;;;2.53;1.10;;;23.50;39.70;;;;;;6114112;28;80306;-62
2022/02/21 05:00:23;;;;;;;2.60;1.48;;;23.50;39.80;;;;;;6123698;28;80471;-64
2022/02/21 05:03:24;;;;;;;0.90;0.90;;;23.50;40.20;;;;;;6100488;28;81572;-63
2022/02/21 05:06:24;;;;;;;2.90;1.00;;;23.60;40.20;;;;;;6129191;28;80647;-63
2022/02/21 05:09:25;;;;;;;1.58;1.30;;;23.60;40.20;;;;;;6113416;28;81464;-63
2022/02/21 05:12:25;;;;;;;0.88;0.80;;;23.60;40.50;;;;;;6102704;28;80820;-63
2022/02/21 05:15:26;;;;;;;1.40;0.95;;;23.60;40.30;;;;;;6104735;28;81228;-60
2022/02/21 05:18:27;;;;;;;1.88;1.00;;;23.60;40.30;;;;;;6108673;28;80983;-61
2022/02/21 05:21:27;;;;;;;1.88;1.10;;;23.60;40.90;;;;;;6101306;28;80999;-61
2022/02/21 05:24:28;;;;;;;1.30;1.00;;;23.70;41.00;;;;;;6101422;28;80199;-61
2022/02/21 05:27:28;;;;;;;1.23;1.05;;;23.70;41.00;;;;;;6104437;28;80327;-62
2022/02/21 05:30:29;;;;;;;1.17;1.00;;;23.50;42.10;;;;;;6106683;28;81093;-63
2022/02/21 05:33:30;;;;;;;2.88;1.00;;;23.20;43.60;;;;;;6119751;28;80484;-61
2022/02/21 05:36:31;;;;;;;2.00;1.20;;;23.20;45.00;;;;;;6110359;28;80439;-62
2022/02/21 05:39:31;;;;;;;1.48;1.20;;;23.10;45.10;;;;;;6114913;28;81093;-62
2022/02/21 05:42:32;;;;;;;1.85;0.98;;;23.00;46.60;;;;;;6111266;28;80508;-63
2022/02/21 05:45:32;;;;;;;1.10;1.00;;;23.00;46.40;;;;;;6103638;28;81697;-61
2022/02/21 05:48:33;;;;;;;0.93;0.93;;;22.90;46.40;;;;;;6123114;28;80533;-62
2022/02/21 05:51:33;;;;;;;1.23;1.13;;;22.90;46.90;;;;;;6099979;28;80543;-61
2022/02/21 05:54:34;;;;;;;1.55;1.33;;;22.80;46.70;;;;;;6109342;28;80395;-61
2022/02/21 05:57:34;;;;;;;2.97;1.20;;;22.90;47.00;;;;;;6110673;28;80145;-61
2022/02/21 06:00:35;;;;;;;2.28;1.50;;;22.80;46.80;;;;;;6110677;28;80973;-61
2022/02/21 06:03:35;;;;;;;2.50;1.15;;;22.80;46.80;;;;;;6110630;28;80470;-62
2022/02/21 06:06:36;;;;;;;2.08;0.98;;;22.80;46.90;;;;;;6108529;28;81262;-62
2022/02/21 06:09:36;;;;;;;1.50;0.95;;;22.80;46.90;;;;;;6111115;28;80332;-62
2022/02/21 06:12:37;;;;;;;4.00;1.30;;;22.80;46.80;;;;;;6111534;28;80464;-62
2022/02/21 06:15:37;;;;;;;1.52;1.00;;;22.80;47.10;;;;;;6112530;28;80507;-61
2022/02/21 06:18:38;;;;;;;1.33;1.02;;;22.90;47.10;;;;;;6111481;28;80978;-61
2022/02/21 06:21:38;;;;;;;1.23;1.13;;;22.90;47.40;;;;;;6094351;28;80384;-61
2022/02/21 06:24:39;;;;;;;2.63;1.33;;;22.80;47.60;;;;;;6097347;28;82583;-63
2022/02/21 06:27:41;;;;;;;1.63;1.35;;;22.80;47.60;;;;;;6111614;28;80281;-61
2022/02/21 06:30:41;;;;;;;3.13;0.90;;;22.70;47.70;;;;;;6106311;28;80749;-60
2022/02/21 06:33:42;;;;;;;1.20;1.10;;;22.80;47.80;;;;;;6110968;28;80633;-61
2022/02/21 06:36:42;;;;;;;3.35;1.30;;;22.70;47.70;;;;;;6101915;28;80362;-61
2022/02/21 06:39:43;;;;;;;1.30;1.20;;;22.70;47.80;;;;;;6105074;28;81164;-61
2022/02/21 06:42:43;;;;;;;1.08;0.90;;;22.70;47.80;;;;;;6107234;28;83533;-61
2022/02/21 06:45:45;;;;;;;4.97;1.48;;;22.60;47.50;;;;;;6107738;28;80617;-61
2022/02/21 06:48:46;;;;;;;1.27;1.00;;;22.60;47.50;;;;;;6099594;28;80701;-62
2022/02/21 06:51:46;;;;;;;1.35;1.25;;;22.60;47.50;;;;;;6095518;28;81248;-62
2022/02/21 06:54:52;;;;;;;1.25;1.02;;;22.60;47.50;;;;;;6101393;28;81506;-62
2022/02/21 06:57:54;;;;;;;1.27;1.02;;;22.50;47.50;;;;;;6093754;28;86005;-63
2022/02/21 07:00:54;;;;;;;2.88;1.20;;;22.60;47.40;;;;;;6098119;28;80861;-62
2022/02/21 07:03:55;;;;;;;2.13;1.30;;;22.60;47.60;;;;;;6106747;28;80367;-62
2022/02/21 07:06:55;;;;;;;5.97;0.93;;;22.50;47.30;;;;;;6102440;28;80811;-64
2022/02/21 07:09:56;;;;;;;1.80;1.00;;;22.50;47.10;;;;;;6097143;28;80555;-66
2022/02/21 07:12:57;;;;;;;4.22;1.20;;;22.50;47.00;;;;;;6108753;28;81784;-64
2022/02/21 07:15:57;;;;;;;1.73;1.08;;;22.50;46.90;;;;;;6107687;28;81961;-63
2022/02/21 07:18:58;;;;;;;2.17;1.20;;;22.50;47.10;;;;;;6103237;28;81321;-63
2022/02/21 07:21:59;;;;;;;0.90;0.90;;;22.40;47.10;;;;;;6112874;28;81646;-63
2022/02/21 07:24:59;;;;;;;3.40;1.00;;;22.40;47.30;;;;;;6127186;28;81156;-63
2022/02/21 07:28:00;;;;;;;4.40;1.00;;;22.50;47.40;;;;;;6118756;28;80459;-63
2022/02/21 07:31:00;;;;;;;4.68;1.15;;;22.70;46.30;;;;;;6104672;28;80425;-63
2022/02/21 07:34:01;;;;;;;3.53;1.38;;;22.80;46.00;;;;;;6092201;28;80490;-63
2022/02/21 07:37:02;;;;;;;3.08;1.20;;;22.90;45.70;;;;;;6098417;28;80467;-63
2022/02/21 07:40:02;;;;;;;2.83;1.42;;;23.00;45.30;;;;;;6099772;28;80388;-63
2022/02/21 07:43:03;;;;;;;1.45;1.35;;;23.00;45.10;;;;;;6121238;28;80407;-63
2022/02/21 07:46:04;;;;;;;3.05;0.95;;;23.00;44.80;;;;;;6100020;28;81324;-62
2022/02/21 07:49:04;;;;;;;8.38;1.45;;;23.10;44.70;;;;;;6119135;28;83599;-62
2022/02/21 07:52:05;;;;;;;3.60;0.98;;;23.10;44.80;;;;;;6116471;28;80842;-63
2022/02/21 07:55:05;;;;;;;3.92;0.95;;;23.10;44.30;;;;;;6114142;28;80422;-62
2022/02/21 07:58:06;;;;;;;5.60;1.20;;;23.10;44.20;;;;;;6112205;28;81222;-61
2022/02/21 08:01:06;;;;;;;4.47;1.25;;;23.00;44.60;;;;;;6112347;28;82665;-62
2022/02/21 08:04:07;;;;;;;2.65;1.25;;;22.90;44.90;;;;;;6099971;28;81977;-63
2022/02/21 08:07:07;;;;;;;2.75;0.80;;;23.00;44.70;;;;;;6119472;28;80419;-62
2022/02/21 08:10:08;;;;;;;3.50;1.27;;;23.00;45.40;;;;;;6109530;28;80714;-63
2022/02/21 08:13:08;;;;;;;2.03;1.02;;;22.80;45.00;;;;;;6113262;28;80809;-63
2022/02/21 08:16:09;;;;;;;5.65;1.15;;;22.70;45.20;;;;;;6107235;28;88008;-64
2022/02/21 08:19:12;;;;;;;5.07;1.00;;;22.70;45.70;;;;;;6110887;28;81511;-64
2022/02/21 08:22:13;;;;;;;1.77;1.10;;;22.70;45.60;;;;;;6130139;28;80301;-63
2022/02/21 08:25:13;;;;;;;2.38;1.20;;;22.70;45.80;;;;;;6115217;28;80632;-63
2022/02/21 08:28:14;;;;;;;1.92;1.48;;;22.70;45.90;;;;;;6120784;28;80640;-63
2022/02/21 08:31:14;;;;;;;2.50;1.35;;;22.70;45.90;;;;;;6129993;28;80367;-63
2022/02/21 08:34:15;;;;;;;2.25;1.23;;;22.60;46.60;;;;;;6129807;28;80569;-63
2022/02/21 08:37:15;;;;;;;2.10;1.20;;;22.60;46.80;;;;;;6108073;28;80674;-63
2022/02/21 08:40:16;;;;;;;3.00;1.35;;;22.70;46.90;;;;;;6110631;28;80942;-63
2022/02/21 08:43:16;;;;;;;2.75;1.20;;;22.70;46.80;;;;;;6099483;28;80693;-63
2022/02/21 08:46:17;;;;;;;8.18;1.35;;;22.70;46.40;;;;;;6125698;28;83053;-60
2022/02/21 08:49:17;;;;;;;1.80;1.50;;;22.70;46.40;;;;;;6107657;28;82328;-60
2022/02/21 08:52:18;;;;;;;13.68;6.93;;;22.60;46.60;;;;;;6128446;28;81623;-61
2022/02/21 08:55:18;;;;;;;8.68;5.40;;;22.60;46.50;;;;;;6110646;28;80364;-60
2022/02/21 08:58:19;;;;;;;10.50;4.78;;;22.60;46.80;;;;;;6111495;28;82285;-63
2022/02/21 09:01:20;;;;;;;7.60;4.10;;;22.50;46.80;;;;;;6096804;28;81503;-62
2022/02/21 09:04:20;;;;;;;7.15;2.90;;;22.60;46.70;;;;;;6104551;28;80462;-64
2022/02/21 09:07:21;;;;;;;6.05;3.22;;;22.60;46.50;;;;;;6105620;28;81885;-62
2022/02/21 09:10:21;;;;;;;4.25;2.13;;;22.60;46.70;;;;;;6101487;28;80728;-63
2022/02/21 09:13:22;;;;;;;4.05;1.85;;;22.60;46.80;;;;;;6094029;28;80715;-62
2022/02/21 09:16:22;;;;;;;2.72;2.00;;;22.60;46.50;;;;;;6092501;28;83370;-61
2022/02/21 09:19:23;;;;;;;2.20;1.90;;;22.60;46.40;;;;;;6121059;28;80421;-62
2022/02/21 09:22:23;;;;;;;2.40;1.60;;;22.60;46.90;;;;;;6116122;28;81051;-61
2022/02/21 09:25:24;;;;;;;5.40;1.58;;;22.60;46.40;;;;;;6110685;28;80666;-61
2022/02/21 09:28:24;;;;;;;1.52;1.20;;;22.60;46.10;;;;;;6115622;28;80732;-60
2022/02/21 09:31:25;;;;;;;2.25;1.27;;;22.70;46.60;;;;;;6097107;28;81646;-61
2022/02/21 09:34:25;;;;;;;3.33;1.27;;;22.80;46.70;;;;;;6096143;28;80207;-61
2022/02/21 09:37:26;;;;;;;2.10;1.23;;;22.80;45.80;;;;;;6111196;28;81308;-61
2022/02/21 09:40:26;;;;;;;4.47;1.40;;;22.80;44.80;;;;;;6100795;28;80865;-61
2022/02/21 09:43:27;;;;;;;1.20;1.10;;;22.80;44.30;;;;;;6107659;28;81576;-61
2022/02/21 09:46:27;;;;;;;1.92;1.23;;;22.80;43.80;;;;;;6104102;28;80456;-62
2022/02/21 09:49:28;;;;;;;2.00;1.00;;;22.70;43.10;;;;;;6115391;28;80406;-63
2022/02/21 09:52:29;;;;;;;1.50;1.02;;;22.60;43.30;;;;;;6121909;28;80811;-64
2022/02/21 09:55:29;;;;;;;1.33;1.00;;;22.60;43.80;;;;;;6104514;28;80729;-62
2022/02/21 09:58:31;;;;;;;0.75;0.75;;;22.60;44.20;;;;;;6104373;28;80829;-61
2022/02/21 10:01:31;;;;;;;1.27;1.00;;;22.50;44.50;;;;;;6103922;28;80641;-61
2022/02/21 10:04:32;;;;;;;1.30;1.00;;;22.60;44.90;;;;;;6108855;28;81634;-63
2022/02/21 10:07:32;;;;;;;2.63;1.00;;;22.60;45.40;;;;;;6097397;28;81656;-62
2022/02/21 10:10:33;;;;;;;0.68;0.68;;;22.70;45.50;;;;;;6099405;28;81517;-60
2022/02/21 10:13:33;;;;;;;2.75;0.82;;;22.60;45.80;;;;;;6112237;28;80555;-62
2022/02/21 10:16:34;;;;;;;0.95;0.90;;;22.70;46.10;;;;;;6102973;28;80420;-61
2022/02/21 10:19:38;;;;;;;1.35;1.10;;;22.70;46.40;;;;;;6097815;28;81257;-61
2022/02/21 10:22:39;;;;;;;2.45;1.25;;;22.70;46.30;;;;;;6112100;28;81854;-60
2022/02/21 10:25:39;;;;;;;1.10;1.00;;;22.70;46.50;;;;;;6112897;28;80523;-61
2022/02/21 10:28:40;;;;;;;0.80;0.80;;;22.80;46.70;;;;;;6106106;28;81420;-61
2022/02/21 10:31:40;;;;;;;1.45;1.08;;;22.80;46.50;;;;;;6097712;28;81667;-61
2022/02/21 10:34:42;;;;;;;0.93;0.90;;;22.80;47.50;;;;;;6106778;28;81425;-64
2022/02/21 10:37:44;;;;;;;1.70;0.85;;;22.80;47.00;;;;;;6105365;28;80206;-61
2022/02/21 10:40:45;;;;;;;0.98;0.93;;;22.80;46.60;;;;;;6108624;28;81357;-62
2022/02/21 10:43:45;;;;;;;1.08;1.00;;;22.70;46.40;;;;;;6112211;28;80128;-62
2022/02/21 10:46:46;;;;;;;1.10;0.90;;;22.70;46.50;;;;;;6110264;28;81304;-62
2022/02/21 10:49:47;;;;;;;2.05;0.95;;;22.70;46.30;;;;;;6128105;28;80372;-61
2022/02/21 10:52:47;;;;;;;1.08;0.98;;;22.70;46.40;;;;;;6125186;28;80740;-61
2022/02/21 10:55:48;;;;;;;2.97;1.05;;;22.70;46.20;;;;;;6109216;28;82577;-62
2022/02/21 10:58:50;;;;;;;1.45;1.00;;;22.70;46.30;;;;;;6104621;28;81882;-61
2022/02/21 11:01:50;;;;;;;1.13;1.02;;;22.70;46.20;;;;;;6118056;28;80334;-62
2022/02/21 11:04:51;;;;;;;1.08;0.98;;;22.70;46.40;;;;;;6116885;28;80133;-62
2022/02/21 11:07:51;;;;;;;1.55;1.17;;;22.70;46.30;;;;;;6099559;28;80566;-62
2022/02/21 11:10:52;;;;;;;1.38;0.90;;;22.70;46.60;;;;;;6108196;28;80528;-62
2022/02/21 11:13:52;;;;;;;1.30;1.20;;;22.70;47.20;;;;;;6125920;28;80495;-58
2022/02/21 11:16:53;;;;;;;2.97;1.17;;;22.80;47.60;;;;;;6115994;28;80619;-62
2022/02/21 11:19:53;;;;;;;2.00;1.10;;;22.80;47.80;;;;;;6125009;28;80234;-62
2022/02/21 11:22:54;;;;;;;3.83;1.38;;;22.90;49.30;;;;;;6103551;28;81912;-62
2022/02/21 11:25:54;;;;;;;6.72;1.20;;;23.00;50.60;;;;;;6105407;28;80685;-61
2022/02/21 11:28:57;;;;;;;1.77;1.20;;;23.00;51.10;;;;;;6098313;28;81201;-61
2022/02/21 11:31:57;;;;;;;2.90;1.48;;;23.10;51.70;;;;;;6091782;28;80518;-61
2022/02/21 11:34:58;;;;;;;2.75;1.20;;;23.10;52.10;;;;;;6098004;28;80467;-62
2022/02/21 11:37:58;;;;;;;2.67;1.50;;;23.20;51.80;;;;;;6121361;28;81661;-63
2022/02/21 11:40:59;;;;;;;5.05;1.70;;;23.20;51.90;;;;;;6120571;28;81587;-62
2022/02/21 11:44:00;;;;;;;1.58;1.42;;;23.10;51.90;;;;;;6112206;28;80900;-62
2022/02/21 11:47:00;;;;;;;2.40;1.48;;;23.20;51.40;;;;;;6098469;28;80507;-62
2022/02/21 11:50:01;;;;;;;3.78;1.50;;;23.20;51.10;;;;;;6100466;28;80487;-63
2022/02/21 11:53:01;;;;;;;4.00;1.77;;;23.20;51.10;;;;;;6092352;28;80861;-62
2022/02/21 11:56:03;;;;;;;2.80;1.48;;;23.20;50.90;;;;;;6092602;28;80771;-62
2022/02/21 11:59:04;;;;;;;4.10;1.58;;;23.20;50.90;;;;;;6092619;28;80652;-62
2022/02/21 12:02:04;;;;;;;6.80;1.85;;;23.20;51.00;;;;;;6096918;28;81264;-63
2022/02/21 12:05:07;;;;;;;2.42;1.50;;;23.20;51.40;;;;;;6106277;28;80345;-62
2022/02/21 12:08:07;;;;;;;2.83;1.70;;;23.20;51.70;;;;;;6104377;28;80776;-63
2022/02/21 12:11:11;;;;;;;3.20;1.58;;;23.30;52.40;;;;;;6121591;28;80461;-62
2022/02/21 12:14:12;;;;;;;4.28;1.48;;;23.30;53.00;;;;;;6106440;28;82224;-63
2022/02/21 12:17:13;;;;;;;3.85;1.77;;;23.40;54.90;;;;;;6123193;28;81910;-63
2022/02/21 12:20:13;;;;;;;2.25;1.63;;;23.40;56.40;;;;;;6108416;28;80664;-62
2022/02/21 12:23:14;;;;;;;2.15;1.58;;;23.50;57.80;;;;;;6119316;28;84442;-60
2022/02/21 12:26:14;;;;;;;4.07;1.75;;;23.50;57.90;;;;;;6107644;28;81032;-62
2022/02/21 12:29:15;;;;;;;4.35;1.80;;;23.50;59.60;;;;;;6107572;28;81150;-62
2022/02/21 12:32:16;;;;;;;2.03;1.63;;;23.50;59.30;;;;;;6092882;28;80472;-60
2022/02/21 12:35:17;;;;;;;3.35;1.70;;;23.50;59.00;;;;;;6108208;28;80479;-64
2022/02/21 12:38:17;;;;;;;4.05;1.90;;;23.50;59.40;;;;;;6131030;28;80404;-61
2022/02/21 12:41:18;;;;;;;4.75;2.10;;;23.50;59.40;;;;;;6102168;28;80611;-62
2022/02/21 12:44:19;;;;;;;7.30;1.83;;;23.50;59.30;;;;;;6105878;28;81707;-64
2022/02/21 12:47:19;;;;;;;3.88;1.85;;;23.50;59.20;;;;;;6118669;28;81145;-63
2022/02/21 12:50:20;;;;;;;10.90;2.22;;;23.50;59.00;;;;;;6115630;28;83015;-63
2022/02/21 12:53:20;;;;;;;3.50;2.00;;;23.50;58.10;;;;;;6105255;28;80443;-64
2022/02/21 12:56:21;;;;;;;2.90;1.98;;;23.50;57.70;;;;;;6118250;28;80564;-63
2022/02/21 12:59:21;;;;;;;3.80;1.80;;;23.50;57.50;;;;;;6119113;28;80797;-67
2022/02/21 13:02:22;;;;;;;3.33;1.77;;;23.50;56.70;;;;;;6127414;28;80474;-64
2022/02/21 13:05:22;;;;;;;4.45;2.10;;;23.50;56.70;;;;;;6130891;28;80947;-65
2022/02/21 13:08:23;;;;;;;2.90;1.80;;;23.50;56.40;;;;;;6111741;28;81010;-63
2022/02/21 13:11:24;;;;;;;4.65;1.77;;;23.40;55.60;;;;;;6095966;28;80543;-62
2022/02/21 13:14:24;;;;;;;4.28;1.90;;;23.30;55.60;;;;;;6109248;28;81348;-66
2022/02/21 13:17:25;;;;;;;3.88;1.92;;;23.20;55.00;;;;;;6100743;28;80816;-66
2022/02/21 13:20:25;;;;;;;3.08;1.73;;;23.40;54.80;;;;;;6102150;28;80483;-61
2022/02/21 13:23:26;;;;;;;3.40;1.52;;;23.30;54.30;;;;;;6116638;28;80445;-63
2022/02/21 13:26:26;;;;;;;3.58;2.00;;;23.30;54.10;;;;;;6123823;28;80553;-64
2022/02/21 13:29:27;;;;;;;3.90;2.00;;;23.30;53.30;;;;;;6108393;28;81035;-64
2022/02/21 13:32:31;;;;;;;5.03;2.00;;;23.30;53.20;;;;;;6108635;28;80391;-63
2022/02/21 13:35:33;;;;;;;3.28;2.03;;;23.20;52.60;;;;;;6108513;28;81300;-63
2022/02/21 13:38:34;;;;;;;5.75;2.20;;;23.10;52.60;;;;;;6122627;28;80198;-63
2022/02/21 13:41:34;;;;;;;4.88;2.10;;;23.10;52.40;;;;;;6116704;28;80599;-62
2022/02/21 13:44:35;;;;;;;4.53;2.10;;;23.10;52.50;;;;;;6109481;28;80886;-63
2022/02/21 13:47:36;;;;;;;3.08;2.33;;;23.20;52.30;;;;;;6113129;28;80344;-62
2022/02/21 13:50:36;;;;;;;4.82;2.40;;;23.20;52.20;;;;;;6127836;28;80530;-61
2022/02/21 13:53:37;;;;;;;2.30;2.00;;;23.10;52.00;;;;;;6097177;28;80807;-62
2022/02/21 13:56:38;;;;;;;4.30;1.98;;;23.10;51.60;;;;;;6104937;28;81432;-62
2022/02/21 13:59:40;;;;;;;2.40;1.60;;;23.10;51.50;;;;;;6111115;28;80771;-63
2022/02/21 14:02:40;;;;;;;3.85;1.83;;;23.10;51.30;;;;;;6115646;28;83257;-63
2022/02/21 14:05:41;;;;;;;3.30;1.88;;;23.10;51.20;;;;;;6108246;28;80629;-63
2022/02/21 14:08:42;;;;;;;4.25;2.10;;;23.10;51.20;;;;;;6105007;28;80823;-62
2022/02/21 14:11:42;;;;;;;3.45;2.30;;;23.00;51.40;;;;;;6121807;28;80270;-62
2022/02/21 14:14:43;;;;;;;4.13;1.83;;;23.00;51.10;;;;;;6112830;28;83934;-64
2022/02/21 14:17:44;;;;;;;1.67;1.52;;;23.10;51.00;;;;;;6098906;28;80941;-61
2022/02/21 14:20:44;;;;;;;4.78;1.90;;;23.00;50.80;;;;;;6122778;28;81996;-62
2022/02/21 14:23:45;;;;;;;5.75;2.70;;;23.00;50.90;;;;;;6111927;28;80573;-63
2022/02/21 14:26:48;;;;;;;5.55;3.15;;;23.10;50.90;;;;;;6126656;28;80544;-61
2022/02/21 14:29:49;;;;;;;26.48;5.95;;;23.10;50.80;;;;;;6107191;28;80559;-64
2022/02/21 14:32:49;;;;;;;70.18;9.27;;;23.10;50.90;;;;;;6099334;28;81290;-63
2022/02/21 14:35:50;;;;;;;64.22;7.88;;;23.10;51.10;;;;;;6100804;28;80566;-63
2022/02/21 14:38:51;;;;;;;40.58;6.50;;;23.10;51.00;;;;;;6110279;28;81541;-64
2022/02/21 14:41:51;;;;;;;38.65;6.40;;;23.00;50.90;;;;;;6112450;28;83372;-61
2022/02/21 14:44:52;;;;;;;40.63;6.00;;;23.00;51.00;;;;;;6105751;28;80981;-62
2022/02/21 14:47:53;;;;;;;34.30;5.68;;;23.00;51.20;;;;;;6104186;28;81348;-61
2022/02/21 14:50:53;;;;;;;33.72;5.28;;;23.00;51.10;;;;;;6098453;28;83695;-62
2022/02/21 14:53:57;;;;;;;17.30;5.40;;;23.00;50.90;;;;;;6105556;28;81607;-62
2022/02/21 14:56:58;;;;;;;12.13;4.47;;;23.10;50.80;;;;;;6104170;28;80450;-62
2022/02/21 14:59:58;;;;;;;37.58;4.65;;;23.20;50.60;;;;;;6098775;28;81011;-61
2022/02/21 15:02:59;;;;;;;19.40;4.55;;;23.30;50.50;;;;;;6100172;28;80302;-62
2022/02/21 15:06:00;;;;;;;14.15;3.85;;;23.40;50.40;;;;;;6094574;28;81546;-65
2022/02/21 15:09:03;;;;;;;11.77;3.80;;;23.40;50.20;;;;;;6097024;28;80793;-61
2022/02/21 15:12:04;;;;;;;16.70;4.32;;;23.40;50.30;;;;;;6097797;28;81660;-61
2022/02/21 15:15:04;;;;;;;8.40;3.60;;;23.40;50.70;;;;;;6099523;28;80735;-64
2022/02/21 15:18:05;;;;;;;11.90;3.70;;;23.40;50.80;;;;;;6096174;28;80394;-63
2022/02/21 15:21:05;;;;;;;15.48;3.83;;;23.30;50.40;;;;;;6102636;28;80854;-62
2022/02/21 15:24:10;;;;;;;16.85;4.13;;;23.30;50.70;;;;;;6100376;28;80935;-62
2022/02/21 15:27:11;;;;;;;14.05;3.13;;;23.30;50.40;;;;;;6094130;28;80908;-62
2022/02/21 15:30:11;;;;;;;14.13;2.88;;;23.20;50.50;;;;;;6102257;28;80997;-62
2022/02/21 15:33:12;;;;;;;13.27;3.70;;;23.20;50.30;;;;;;6101439;28;80628;-62
2022/02/21 15:36:12;;;;;;;7.70;3.15;;;23.20;50.50;;;;;;6106193;28;80520;-60
2022/02/21 15:39:15;;;;;;;6.32;2.72;;;23.20;50.40;;;;;;6102685;28;84712;-60